createdAt,value
2023-05-01T00:00:19.964Z,0.00
2023-05-01T00:01:19.992Z,0.00
2023-05-01T00:02:20.053Z,0.00
2023-05-01T00:03:20.175Z,0.00
2023-05-01T00:04:20.178Z,0.00
2023-05-01T00:05:20.080Z,0.00
2023-05-01T00:06:20.127Z,0.00
2023-05-01T00:07:20.107Z,0.00
2023-05-01T00:08:20.142Z,0.00
2023-05-01T00:09:20.157Z,0.00
2023-05-01T00:10:20.207Z,0.00
2023-05-01T00:11:20.192Z,0.00
2023-05-01T00:12:20.211Z,0.00
2023-05-01T00:13:20.234Z,0.00
2023-05-01T00:14:20.251Z,0.00
2023-05-01T00:15:20.271Z,0.00
2023-05-01T00:16:20.333Z,0.00
2023-05-01T00:17:20.312Z,0.00
2023-05-01T00:18:20.375Z,0.00
2023-05-01T00:19:20.355Z,0.00
2023-05-01T00:20:20.377Z,0.00
2023-05-01T00:21:20.395Z,0.00
2023-05-01T00:22:20.425Z,0.00
2023-05-01T00:23:20.436Z,0.00
2023-05-01T00:24:20.478Z,0.00
2023-05-01T00:25:20.479Z,0.00
2023-05-01T00:26:20.535Z,0.00
2023-05-01T00:27:20.524Z,0.00
2023-05-01T00:28:20.542Z,0.00
2023-05-01T00:29:20.568Z,0.00
2023-05-01T00:30:20.588Z,0.00
2023-05-01T00:31:20.610Z,0.00
2023-05-01T00:32:20.731Z,0.00
2023-05-01T00:33:20.658Z,0.00
2023-05-01T00:34:20.668Z,0.00
2023-05-01T00:35:20.714Z,0.00
2023-05-01T00:36:20.715Z,0.00
2023-05-01T00:37:20.734Z,0.00
2023-05-01T00:38:20.768Z,0.00
2023-05-01T00:39:20.803Z,0.00
2023-05-01T00:40:20.811Z,0.00
2023-05-01T00:41:20.825Z,0.00
2023-05-01T00:42:20.845Z,0.00
2023-05-01T00:43:20.876Z,0.00
2023-05-01T00:44:20.887Z,0.00
2023-05-01T00:45:20.901Z,0.00
2023-05-01T00:46:20.937Z,0.00
2023-05-01T00:47:20.972Z,0.00
2023-05-01T00:48:20.981Z,0.00
2023-05-01T00:49:20.991Z,0.00
2023-05-01T00:50:21.003Z,0.00
2023-05-01T00:51:21.071Z,0.00
2023-05-01T00:52:21.057Z,0.00
2023-05-01T00:53:21.066Z,0.00
2023-05-01T00:54:21.106Z,0.00
2023-05-01T00:55:21.110Z,0.00
2023-05-01T00:56:21.127Z,0.00
2023-05-01T00:57:21.149Z,0.00
2023-05-01T00:58:21.189Z,0.00
2023-05-01T00:59:21.210Z,0.00
2023-05-01T01:00:21.210Z,0.00
2023-05-01T01:01:21.302Z,0.00
2023-05-01T01:02:21.258Z,0.00
2023-05-01T01:03:21.271Z,0.00
2023-05-01T01:04:21.335Z,0.00
2023-05-01T01:05:21.315Z,0.00
2023-05-01T01:06:21.365Z,0.00
2023-05-01T01:07:21.369Z,0.00
2023-05-01T01:08:21.379Z,0.00
2023-05-01T01:09:21.397Z,0.00
2023-05-01T01:10:21.423Z,0.00
2023-05-01T01:11:21.444Z,0.00
2023-05-01T01:12:21.479Z,0.00
2023-05-01T01:13:21.475Z,0.00
2023-05-01T01:14:21.507Z,0.00
2023-05-01T01:15:21.527Z,0.00
2023-05-01T01:16:21.557Z,0.00
2023-05-01T01:17:21.558Z,0.00
2023-05-01T01:18:21.588Z,0.00
2023-05-01T01:19:21.600Z,0.00
2023-05-01T01:20:21.622Z,0.00
2023-05-01T01:21:21.641Z,0.00
2023-05-01T01:22:21.717Z,0.00
2023-05-01T01:23:21.683Z,0.00
2023-05-01T01:24:21.704Z,0.00
2023-05-01T01:25:21.724Z,0.00
2023-05-01T01:26:21.744Z,0.00
2023-05-01T01:27:21.765Z,0.00
2023-05-01T01:28:21.810Z,0.00
2023-05-01T01:29:21.816Z,0.00
2023-05-01T01:30:21.830Z,0.00
2023-05-01T01:31:21.890Z,0.00
2023-05-01T01:32:21.930Z,0.00
2023-05-01T01:33:21.889Z,0.00
2023-05-01T01:34:21.906Z,0.00
2023-05-01T01:35:21.936Z,0.00
2023-05-01T01:36:21.957Z,0.00
2023-05-01T01:37:21.993Z,0.00
2023-05-01T01:38:22.003Z,0.00
2023-05-01T01:39:22.012Z,0.00
2023-05-01T01:40:22.037Z,0.00
2023-05-01T01:41:22.057Z,0.00
2023-05-01T01:42:22.075Z,0.00
2023-05-01T01:43:22.102Z,0.00
2023-05-01T01:44:22.114Z,0.00
2023-05-01T01:45:22.155Z,0.00
2023-05-01T01:46:22.182Z,0.00
2023-05-01T01:47:22.195Z,0.00
2023-05-01T01:48:22.202Z,0.00
2023-05-01T01:49:22.221Z,0.00
2023-05-01T01:50:22.239Z,0.00
2023-05-01T01:51:22.263Z,0.00
2023-05-01T01:52:22.311Z,0.00
2023-05-01T01:53:22.299Z,0.00
2023-05-01T01:54:22.322Z,0.00
2023-05-01T01:55:22.345Z,0.00
2023-05-01T01:56:22.361Z,0.00
2023-05-01T01:57:22.385Z,0.00
2023-05-01T01:58:22.412Z,0.00
2023-05-01T01:59:22.425Z,0.00
2023-05-01T02:00:22.471Z,0.00
2023-05-01T02:01:22.487Z,0.00
2023-05-01T02:02:22.574Z,0.00
2023-05-01T02:03:22.619Z,0.00
2023-05-01T02:04:22.522Z,0.00
2023-05-01T02:05:22.545Z,0.00
2023-05-01T02:06:22.614Z,0.00
2023-05-01T02:07:22.589Z,0.00
2023-05-01T02:08:22.611Z,0.00
2023-05-01T02:09:22.672Z,0.00
2023-05-01T02:10:22.658Z,0.00
2023-05-01T02:11:22.676Z,0.00
2023-05-01T02:12:22.700Z,0.00
2023-05-01T02:13:22.713Z,0.00
2023-05-01T02:14:22.732Z,0.00
2023-05-01T02:15:22.753Z,0.00
2023-05-01T02:16:22.802Z,0.00
2023-05-01T02:17:22.816Z,0.00
2023-05-01T02:18:22.822Z,0.00
2023-05-01T02:19:22.834Z,0.00
2023-05-01T02:20:22.853Z,0.00
2023-05-01T02:21:22.914Z,0.00
2023-05-01T02:22:22.897Z,0.00
2023-05-01T02:23:22.915Z,0.00
2023-05-01T02:24:22.938Z,0.00
2023-05-01T02:25:22.960Z,0.00
2023-05-01T02:26:23.084Z,0.00
2023-05-01T02:27:23.004Z,0.00
2023-05-01T02:28:23.022Z,0.00
2023-05-01T02:29:23.053Z,0.00
2023-05-01T02:30:23.056Z,0.00
2023-05-01T02:31:23.125Z,0.00
2023-05-01T02:32:23.141Z,0.00
2023-05-01T02:33:23.118Z,0.00
2023-05-01T02:34:23.141Z,0.00
2023-05-01T02:35:23.167Z,0.00
2023-05-01T02:36:23.188Z,0.00
2023-05-01T02:37:23.208Z,0.00
2023-05-01T02:38:23.224Z,0.00
2023-05-01T02:39:23.246Z,0.00
2023-05-01T02:40:23.271Z,0.00
2023-05-01T02:41:23.287Z,0.00
2023-05-01T02:42:23.308Z,0.00
2023-05-01T02:43:23.326Z,0.00
2023-05-01T02:44:23.358Z,0.00
2023-05-01T02:45:23.368Z,0.00
2023-05-01T02:46:23.519Z,0.00
2023-05-01T02:47:23.518Z,0.00
2023-05-01T02:48:23.437Z,0.00
2023-05-01T02:49:23.452Z,0.00
2023-05-01T02:50:23.489Z,0.00
2023-05-01T02:51:23.498Z,0.00
2023-05-01T02:52:23.512Z,0.00
2023-05-01T02:53:23.608Z,0.00
2023-05-01T02:54:23.554Z,0.00
2023-05-01T02:55:23.592Z,0.00
2023-05-01T02:56:23.592Z,0.00
2023-05-01T02:57:23.616Z,0.00
2023-05-01T02:58:23.673Z,0.00
2023-05-01T02:59:23.661Z,0.00
2023-05-01T03:00:23.678Z,0.00
2023-05-01T03:01:23.718Z,0.00
2023-05-01T03:02:23.723Z,0.00
2023-05-01T03:03:23.780Z,0.00
2023-05-01T03:04:23.828Z,0.00
2023-05-01T03:05:23.796Z,0.00
2023-05-01T03:06:23.868Z,0.00
2023-05-01T03:07:23.830Z,0.00
2023-05-01T03:08:23.837Z,0.00
2023-05-01T03:09:23.871Z,0.00
2023-05-01T03:10:23.891Z,0.00
2023-05-01T03:11:23.898Z,0.00
2023-05-01T03:12:23.919Z,0.00
2023-05-01T03:13:23.955Z,0.00
2023-05-01T03:14:23.961Z,0.00
2023-05-01T03:15:23.981Z,0.00
2023-05-01T03:16:24.055Z,0.00
2023-05-01T03:17:24.082Z,0.00
2023-05-01T03:18:24.232Z,0.00
2023-05-01T03:19:24.062Z,0.00
2023-05-01T03:20:24.866Z,0.00
2023-05-01T03:21:24.163Z,0.00
2023-05-01T03:22:24.130Z,4.00
2023-05-01T03:23:24.148Z,4.00
2023-05-01T03:24:24.164Z,4.00
2023-05-01T03:25:24.187Z,0.00
2023-05-01T03:26:24.206Z,4.00
2023-05-01T03:27:24.225Z,4.00
2023-05-01T03:28:24.247Z,8.00
2023-05-01T03:29:24.277Z,4.00
2023-05-01T03:30:24.293Z,8.00
2023-05-01T03:31:24.372Z,8.00
2023-05-01T03:32:24.394Z,8.00
2023-05-01T03:33:24.343Z,12.00
2023-05-01T03:34:24.363Z,12.00
2023-05-01T03:35:24.435Z,12.00
2023-05-01T03:36:24.401Z,16.00
2023-05-01T03:37:24.456Z,16.00
2023-05-01T03:38:24.449Z,20.00
2023-05-01T03:39:24.477Z,24.00
2023-05-01T03:40:24.488Z,28.00
2023-05-01T03:41:24.523Z,32.00
2023-05-01T03:42:24.549Z,36.00
2023-05-01T03:43:24.552Z,40.00
2023-05-01T03:44:24.566Z,48.00
2023-05-01T03:45:24.589Z,56.00
2023-05-01T03:46:24.691Z,60.00
2023-05-01T03:47:24.664Z,72.00
2023-05-01T03:48:24.657Z,76.00
2023-05-01T03:49:24.664Z,84.00
2023-05-01T03:50:24.696Z,96.00
2023-05-01T03:51:24.757Z,108.00
2023-05-01T03:52:24.743Z,116.00
2023-05-01T03:53:24.756Z,124.00
2023-05-01T03:54:24.769Z,140.00
2023-05-01T03:55:24.802Z,148.00
2023-05-01T03:56:24.819Z,164.00
2023-05-01T03:57:24.852Z,180.00
2023-05-01T03:58:24.855Z,192.00
2023-05-01T03:59:24.872Z,212.00
2023-05-01T04:00:24.894Z,236.00
2023-05-01T04:01:24.921Z,252.00
2023-05-01T04:02:25.062Z,280.00
2023-05-01T04:03:25.007Z,304.00
2023-05-01T04:04:25.043Z,328.00
2023-05-01T04:05:25.003Z,348.00
2023-05-01T04:06:25.065Z,372.00
2023-05-01T04:07:25.051Z,400.00
2023-05-01T04:08:25.058Z,432.00
2023-05-01T04:09:25.110Z,456.00
2023-05-01T04:10:25.108Z,488.00
2023-05-01T04:11:25.137Z,520.00
2023-05-01T04:12:25.142Z,552.00
2023-05-01T04:13:25.168Z,588.00
2023-05-01T04:14:25.187Z,632.00
2023-05-01T04:15:25.211Z,668.00
2023-05-01T04:16:25.318Z,708.00
2023-05-01T04:17:25.245Z,756.00
2023-05-01T04:18:25.267Z,796.00
2023-05-01T04:19:25.285Z,844.00
2023-05-01T04:20:25.309Z,892.00
2023-05-01T04:21:25.330Z,944.00
2023-05-01T04:22:25.358Z,1000.00
2023-05-01T04:23:25.377Z,1064.00
2023-05-01T04:24:25.390Z,1128.00
2023-05-01T04:25:25.427Z,1208.00
2023-05-01T04:26:25.440Z,1348.00
2023-05-01T04:27:25.454Z,1456.00
2023-05-01T04:28:25.495Z,1492.00
2023-05-01T04:29:25.490Z,1492.00
2023-05-01T04:30:25.508Z,1544.00
2023-05-01T04:31:25.562Z,1592.00
2023-05-01T04:32:25.613Z,1636.00
2023-05-01T04:33:25.579Z,1692.00
2023-05-01T04:34:25.593Z,1744.00
2023-05-01T04:35:25.621Z,1804.00
2023-05-01T04:36:25.654Z,1876.00
2023-05-01T04:37:25.656Z,1964.00
2023-05-01T04:38:25.674Z,2064.00
2023-05-01T04:39:25.696Z,2188.00
2023-05-01T04:40:25.717Z,2312.00
2023-05-01T04:41:25.738Z,2440.00
2023-05-01T04:42:25.757Z,2576.00
2023-05-01T04:43:25.777Z,2756.00
2023-05-01T04:44:25.802Z,3040.00
2023-05-01T04:45:25.823Z,3300.00
2023-05-01T04:46:25.888Z,3500.00
2023-05-01T04:47:25.874Z,3744.00
2023-05-01T04:48:25.883Z,3916.00
2023-05-01T04:49:25.907Z,3828.00
2023-05-01T04:50:25.929Z,3924.00
2023-05-01T04:51:25.950Z,4200.00
2023-05-01T04:52:25.968Z,4408.00
2023-05-01T04:53:25.988Z,4608.00
2023-05-01T04:54:26.010Z,4764.00
2023-05-01T04:55:26.035Z,5012.00
2023-05-01T04:56:26.065Z,5292.00
2023-05-01T04:57:26.076Z,5548.00
2023-05-01T04:58:26.103Z,5280.00
2023-05-01T04:59:26.130Z,5176.00
2023-05-01T05:00:26.140Z,5252.00
2023-05-01T05:01:26.230Z,5408.00
2023-05-01T05:02:26.257Z,5836.00
2023-05-01T05:03:26.303Z,5916.00
2023-05-01T05:04:26.233Z,5612.00
2023-05-01T05:05:26.252Z,5460.00
2023-05-01T05:06:26.403Z,5264.00
2023-05-01T05:07:26.299Z,5484.00
2023-05-01T05:08:26.324Z,5704.00
2023-05-01T05:09:26.349Z,5788.00
2023-05-01T05:10:26.394Z,5936.00
2023-05-01T05:11:26.417Z,6164.00
2023-05-01T05:12:26.419Z,5864.00
2023-05-01T05:13:26.439Z,5912.00
2023-05-01T05:14:26.457Z,5876.00
2023-05-01T05:15:26.483Z,5840.00
2023-05-01T05:16:26.532Z,5588.00
2023-05-01T05:17:26.527Z,5408.00
2023-05-01T05:18:26.551Z,5588.00
2023-05-01T05:19:26.575Z,5572.00
2023-05-01T05:20:26.615Z,5364.00
2023-05-01T05:21:26.624Z,5312.00
2023-05-01T05:22:26.650Z,5440.00
2023-05-01T05:23:26.666Z,5548.00
2023-05-01T05:24:26.726Z,5720.00
2023-05-01T05:25:26.712Z,6108.00
2023-05-01T05:26:26.737Z,6240.00
2023-05-01T05:27:26.767Z,6220.00
2023-05-01T05:28:26.782Z,6212.00
2023-05-01T05:29:26.815Z,6136.00
2023-05-01T05:30:26.834Z,6144.00
2023-05-01T05:31:26.878Z,6120.00
2023-05-01T05:32:27.005Z,6080.00
2023-05-01T05:33:26.902Z,6144.00
2023-05-01T05:34:26.922Z,6492.00
2023-05-01T05:35:26.946Z,6716.00
2023-05-01T05:36:26.974Z,7288.00
2023-05-01T05:37:26.993Z,8040.00
2023-05-01T05:38:27.021Z,8620.00
2023-05-01T05:39:27.056Z,8056.00
2023-05-01T05:40:27.061Z,7688.00
2023-05-01T05:41:27.098Z,7580.00
2023-05-01T05:42:27.124Z,7576.00
2023-05-01T05:43:28.109Z,7316.00
2023-05-01T05:44:27.155Z,7284.00
2023-05-01T05:45:27.180Z,7444.00
2023-05-01T05:46:27.313Z,7516.00
2023-05-01T05:47:27.227Z,7716.00
2023-05-01T05:48:27.313Z,7780.00
2023-05-01T05:49:27.272Z,8008.00
2023-05-01T05:50:27.305Z,8104.00
2023-05-01T05:51:27.321Z,8212.00
2023-05-01T05:52:27.342Z,8332.00
2023-05-01T05:53:27.367Z,8500.00
2023-05-01T05:54:27.392Z,8400.00
2023-05-01T05:55:27.414Z,8292.00
2023-05-01T05:56:27.441Z,8332.00
2023-05-01T05:57:27.495Z,8348.00
2023-05-01T05:58:27.486Z,8384.00
2023-05-01T05:59:27.509Z,8740.00
2023-05-01T06:00:27.538Z,9084.00
2023-05-01T06:01:27.575Z,10380.00
2023-05-01T06:02:27.693Z,10408.00
2023-05-01T06:03:27.755Z,12068.00
2023-05-01T06:04:27.634Z,11852.00
2023-05-01T06:05:27.725Z,13180.00
2023-05-01T06:06:27.785Z,12840.00
2023-05-01T06:07:27.707Z,11884.00
2023-05-01T06:08:27.741Z,11892.00
2023-05-01T06:09:27.750Z,12228.00
2023-05-01T06:10:27.878Z,12460.00
2023-05-01T06:11:27.806Z,13104.00
2023-05-01T06:12:27.824Z,13264.00
2023-05-01T06:13:27.850Z,12184.00
2023-05-01T06:14:27.872Z,12448.00
2023-05-01T06:15:27.896Z,12268.00
2023-05-01T06:16:27.999Z,12072.00
2023-05-01T06:17:27.957Z,11268.00
2023-05-01T06:18:27.970Z,11268.00
2023-05-01T06:19:28.002Z,10996.00
2023-05-01T06:20:28.019Z,10104.00
2023-05-01T06:21:28.044Z,10364.00
2023-05-01T06:22:28.070Z,11912.00
2023-05-01T06:23:28.108Z,13748.00
2023-05-01T06:24:28.118Z,14544.00
2023-05-01T06:25:28.141Z,16992.00
2023-05-01T06:26:28.168Z,17312.00
2023-05-01T06:27:28.200Z,15172.00
2023-05-01T06:28:28.215Z,13824.00
2023-05-01T06:29:28.244Z,13860.00
2023-05-01T06:30:28.306Z,13336.00
2023-05-01T06:31:28.348Z,14168.00
2023-05-01T06:32:28.359Z,15144.00
2023-05-01T06:33:28.341Z,19072.00
2023-05-01T06:34:28.374Z,20320.00
2023-05-01T06:35:28.386Z,19968.00
2023-05-01T06:36:28.422Z,19520.00
2023-05-01T06:37:28.438Z,18944.00
2023-05-01T06:38:28.468Z,18592.00
2023-05-01T06:39:28.492Z,16384.00
2023-05-01T06:40:28.540Z,14548.00
2023-05-01T06:41:28.543Z,18144.00
2023-05-01T06:42:28.565Z,18208.00
2023-05-01T06:43:28.593Z,17440.00
2023-05-01T06:44:29.939Z,18560.00
2023-05-01T06:45:28.652Z,18240.00
2023-05-01T06:46:28.702Z,19232.00
2023-05-01T06:47:28.757Z,18080.00
2023-05-01T06:48:28.724Z,15732.00
2023-05-01T06:49:28.772Z,15208.00
2023-05-01T06:50:28.787Z,14300.00
2023-05-01T06:51:28.800Z,14356.00
2023-05-01T06:52:28.835Z,17440.00
2023-05-01T06:53:28.852Z,18176.00
2023-05-01T06:54:28.881Z,18272.00
2023-05-01T06:55:28.907Z,17888.00
2023-05-01T06:56:28.945Z,15500.00
2023-05-01T06:57:28.968Z,14168.00
2023-05-01T06:58:28.983Z,13624.00
2023-05-01T06:59:29.012Z,12784.00
2023-05-01T07:00:29.069Z,12512.00
2023-05-01T07:01:29.104Z,12388.00
2023-05-01T07:02:29.166Z,12040.00
2023-05-01T07:03:29.185Z,11752.00
2023-05-01T07:04:29.147Z,11860.00
2023-05-01T07:05:29.179Z,11788.00
2023-05-01T07:06:29.223Z,11656.00
2023-05-01T07:07:29.228Z,11604.00
2023-05-01T07:08:29.254Z,11592.00
2023-05-01T07:09:29.273Z,11572.00
2023-05-01T07:10:29.312Z,11552.00
2023-05-01T07:11:29.340Z,11540.00
2023-05-01T07:12:29.357Z,11372.00
2023-05-01T07:13:29.384Z,11212.00
2023-05-01T07:14:29.411Z,11116.00
2023-05-01T07:15:29.434Z,11012.00
2023-05-01T07:16:29.552Z,10860.00
2023-05-01T07:17:29.503Z,10788.00
2023-05-01T07:18:29.524Z,10912.00
2023-05-01T07:19:29.596Z,11096.00
2023-05-01T07:20:29.572Z,11028.00
2023-05-01T07:21:29.591Z,10924.00
2023-05-01T07:22:29.618Z,10872.00
2023-05-01T07:23:29.651Z,10928.00
2023-05-01T07:24:29.673Z,11136.00
2023-05-01T07:25:29.700Z,11400.00
2023-05-01T07:26:29.720Z,11720.00
2023-05-01T07:27:29.750Z,11712.00
2023-05-01T07:28:29.775Z,11644.00
2023-05-01T07:29:29.810Z,11532.00
2023-05-01T07:30:29.843Z,11404.00
2023-05-01T07:31:29.879Z,11340.00
2023-05-01T07:32:29.962Z,11348.00
2023-05-01T07:33:29.903Z,11472.00
2023-05-01T07:34:29.931Z,11540.00
2023-05-01T07:35:29.978Z,11468.00
2023-05-01T07:36:29.986Z,11388.00
2023-05-01T07:37:30.011Z,11396.00
2023-05-01T07:38:30.040Z,11400.00
2023-05-01T07:39:30.061Z,11388.00
2023-05-01T07:40:30.084Z,11476.00
2023-05-01T07:41:30.113Z,11528.00
2023-05-01T07:42:30.159Z,11532.00
2023-05-01T07:43:30.170Z,11456.00
2023-05-01T07:44:30.188Z,11304.00
2023-05-01T07:45:30.214Z,11248.00
2023-05-01T07:46:30.404Z,11092.00
2023-05-01T07:47:30.296Z,11100.00
2023-05-01T07:48:30.305Z,11228.00
2023-05-01T07:49:30.320Z,11344.00
2023-05-01T07:50:30.348Z,11340.00
2023-05-01T07:51:30.383Z,11360.00
2023-05-01T07:52:30.402Z,11516.00
2023-05-01T07:53:30.423Z,11736.00
2023-05-01T07:54:30.450Z,11752.00
2023-05-01T07:55:30.487Z,11768.00
2023-05-01T07:56:30.507Z,11932.00
2023-05-01T07:57:30.534Z,12064.00
2023-05-01T07:58:30.592Z,12080.00
2023-05-01T07:59:30.600Z,12080.00
2023-05-01T08:00:30.727Z,12104.00
2023-05-01T08:01:30.650Z,12060.00
2023-05-01T08:02:30.826Z,11976.00
2023-05-01T08:03:30.895Z,11860.00
2023-05-01T08:04:30.761Z,11704.00
2023-05-01T08:05:30.751Z,11608.00
2023-05-01T08:06:30.818Z,11524.00
2023-05-01T08:07:30.802Z,11416.00
2023-05-01T08:08:30.830Z,11252.00
2023-05-01T08:09:30.868Z,11060.00
2023-05-01T08:10:30.888Z,10896.00
2023-05-01T08:11:30.912Z,10816.00
2023-05-01T08:12:30.946Z,10804.00
2023-05-01T08:13:30.979Z,10740.00
2023-05-01T08:14:30.998Z,10604.00
2023-05-01T08:15:31.022Z,10448.00
2023-05-01T08:16:31.099Z,10236.00
2023-05-01T08:17:31.140Z,10016.00
2023-05-01T08:18:31.117Z,9812.00
2023-05-01T08:19:31.134Z,9664.00
2023-05-01T08:20:31.159Z,9572.00
2023-05-01T08:21:31.190Z,9472.00
2023-05-01T08:22:31.262Z,9400.00
2023-05-01T08:23:31.254Z,9400.00
2023-05-01T08:24:31.281Z,9488.00
2023-05-01T08:25:31.306Z,9596.00
2023-05-01T08:26:31.330Z,9740.00
2023-05-01T08:27:31.366Z,9880.00
2023-05-01T08:28:31.391Z,9972.00
2023-05-01T08:29:31.421Z,10028.00
2023-05-01T08:30:31.439Z,10052.00
2023-05-01T08:31:31.508Z,10076.00
2023-05-01T08:32:31.596Z,10080.00
2023-05-01T08:33:31.524Z,10040.00
2023-05-01T08:34:31.723Z,10032.00
2023-05-01T08:35:31.576Z,10008.00
2023-05-01T08:36:31.610Z,9864.00
2023-05-01T08:37:31.634Z,9724.00
2023-05-01T08:38:31.669Z,9560.00
2023-05-01T08:39:31.694Z,9312.00
2023-05-01T08:40:31.723Z,9148.00
2023-05-01T08:41:31.744Z,9064.00
2023-05-01T08:42:32.443Z,9024.00
2023-05-01T08:43:31.801Z,9016.00
2023-05-01T08:44:31.829Z,9008.00
2023-05-01T08:45:31.869Z,9012.00
2023-05-01T08:46:31.943Z,9008.00
2023-05-01T08:47:31.979Z,8960.00
2023-05-01T08:48:31.939Z,8896.00
2023-05-01T08:49:31.966Z,8852.00
2023-05-01T08:50:32.009Z,8932.00
2023-05-01T08:51:32.026Z,9060.00
2023-05-01T08:52:32.060Z,9180.00
2023-05-01T08:53:32.075Z,9252.00
2023-05-01T08:54:32.099Z,9296.00
2023-05-01T08:55:32.140Z,9260.00
2023-05-01T08:56:32.155Z,9200.00
2023-05-01T08:57:32.195Z,9192.00
2023-05-01T08:58:32.207Z,9260.00
2023-05-01T08:59:32.241Z,9364.00
2023-05-01T09:00:32.271Z,9468.00
2023-05-01T09:01:32.350Z,9588.00
2023-05-01T09:02:32.344Z,9648.00
2023-05-01T09:03:32.442Z,9700.00
2023-05-01T09:04:32.385Z,9732.00
2023-05-01T09:05:32.401Z,9756.00
2023-05-01T09:06:32.612Z,9748.00
2023-05-01T09:07:32.460Z,9724.00
2023-05-01T09:08:32.483Z,9716.00
2023-05-01T09:09:32.515Z,9712.00
2023-05-01T09:10:33.074Z,9772.00
2023-05-01T09:11:32.569Z,9816.00
2023-05-01T09:12:32.592Z,9892.00
2023-05-01T09:13:32.646Z,10028.00
2023-05-01T09:14:32.658Z,10296.00
2023-05-01T09:15:32.679Z,10440.00
2023-05-01T09:16:32.937Z,10648.00
2023-05-01T09:17:32.813Z,10940.00
2023-05-01T09:18:32.760Z,11284.00
2023-05-01T09:19:32.795Z,11492.00
2023-05-01T09:20:32.830Z,11448.00
2023-05-01T09:21:32.922Z,11452.00
2023-05-01T09:22:32.882Z,11412.00
2023-05-01T09:23:32.904Z,11352.00
2023-05-01T09:24:32.933Z,11120.00
2023-05-01T09:25:32.960Z,10764.00
2023-05-01T09:26:32.990Z,10480.00
2023-05-01T09:27:33.013Z,10228.00
2023-05-01T09:28:33.050Z,9992.00
2023-05-01T09:29:33.075Z,9752.00
2023-05-01T09:30:33.132Z,9544.00
2023-05-01T09:31:33.136Z,9352.00
2023-05-01T09:32:33.204Z,9200.00
2023-05-01T09:33:33.186Z,9076.00
2023-05-01T09:34:33.244Z,9024.00
2023-05-01T09:35:33.241Z,9032.00
2023-05-01T09:36:33.272Z,9080.00
2023-05-01T09:37:33.302Z,9136.00
2023-05-01T09:38:33.330Z,9240.00
2023-05-01T09:39:33.362Z,9348.00
2023-05-01T09:40:33.398Z,9448.00
2023-05-01T09:41:33.441Z,9536.00
2023-05-01T09:42:33.456Z,9580.00
2023-05-01T09:43:33.481Z,9616.00
2023-05-01T09:44:33.504Z,9592.00
2023-05-01T09:45:33.539Z,9544.00
2023-05-01T09:46:33.620Z,9436.00
2023-05-01T09:47:33.740Z,9284.00
2023-05-01T09:48:35.319Z,9156.00
2023-05-01T09:49:33.649Z,8956.00
2023-05-01T09:50:33.682Z,8640.00
2023-05-01T09:51:33.705Z,8328.00
2023-05-01T09:52:33.753Z,8052.00
2023-05-01T09:53:33.767Z,7780.00
2023-05-01T09:54:33.794Z,7536.00
2023-05-01T09:55:33.819Z,7316.00
2023-05-01T09:56:33.910Z,7136.00
2023-05-01T09:57:33.878Z,7008.00
2023-05-01T09:58:33.924Z,6916.00
2023-05-01T09:59:33.940Z,6860.00
2023-05-01T10:00:33.976Z,6832.00
2023-05-01T10:01:34.022Z,6840.00
2023-05-01T10:02:34.149Z,6856.00
2023-05-01T10:03:34.150Z,6864.00
2023-05-01T10:04:34.085Z,6924.00
2023-05-01T10:05:34.110Z,6964.00
2023-05-01T10:06:34.225Z,6980.00
2023-05-01T10:07:34.170Z,7000.00
2023-05-01T10:08:34.212Z,6992.00
2023-05-01T10:09:34.234Z,6864.00
2023-05-01T10:10:34.260Z,6676.00
2023-05-01T10:11:34.298Z,6476.00
2023-05-01T10:12:34.314Z,6276.00
2023-05-01T10:13:34.342Z,6080.00
2023-05-01T10:14:34.368Z,5864.00
2023-05-01T10:15:34.402Z,5652.00
2023-05-01T10:16:34.439Z,5428.00
2023-05-01T10:17:34.470Z,5252.00
2023-05-01T10:18:34.478Z,5108.00
2023-05-01T10:19:34.524Z,5000.00
2023-05-01T10:20:34.542Z,4908.00
2023-05-01T10:21:34.568Z,4848.00
2023-05-01T10:22:34.600Z,4796.00
2023-05-01T10:23:34.630Z,4704.00
2023-05-01T10:24:34.654Z,4588.00
2023-05-01T10:25:34.682Z,4464.00
2023-05-01T10:26:34.735Z,4224.00
2023-05-01T10:27:34.741Z,4208.00
2023-05-01T10:28:34.771Z,4668.00
2023-05-01T10:29:34.796Z,5288.00
2023-05-01T10:30:34.827Z,5776.00
2023-05-01T10:31:34.938Z,6128.00
2023-05-01T10:32:34.906Z,6492.00
2023-05-01T10:33:34.903Z,6560.00
2023-05-01T10:34:34.940Z,6444.00
2023-05-01T10:35:34.963Z,6288.00
2023-05-01T10:36:34.990Z,6116.00
2023-05-01T10:37:35.055Z,6004.00
2023-05-01T10:38:35.065Z,5980.00
2023-05-01T10:39:35.084Z,5964.00
2023-05-01T10:40:35.123Z,5956.00
2023-05-01T10:41:35.133Z,5980.00
2023-05-01T10:42:35.310Z,6024.00
2023-05-01T10:43:35.200Z,6124.00
2023-05-01T10:44:35.280Z,6212.00
2023-05-01T10:45:36.004Z,6272.00
2023-05-01T10:46:35.284Z,6324.00
2023-05-01T10:47:35.356Z,6372.00
2023-05-01T10:48:35.324Z,6456.00
2023-05-01T10:49:35.355Z,6632.00
2023-05-01T10:50:35.426Z,6780.00
2023-05-01T10:51:35.411Z,6848.00
2023-05-01T10:52:35.442Z,6836.00
2023-05-01T10:53:35.488Z,6804.00
2023-05-01T10:54:35.495Z,6764.00
2023-05-01T10:55:35.524Z,6724.00
2023-05-01T10:56:35.559Z,6696.00
2023-05-01T10:57:35.582Z,6692.00
2023-05-01T10:58:35.609Z,6728.00
2023-05-01T10:59:35.648Z,6796.00
2023-05-01T11:00:35.664Z,6864.00
2023-05-01T11:01:35.729Z,6920.00
2023-05-01T11:02:35.764Z,6908.00
2023-05-01T11:03:35.784Z,6728.00
2023-05-01T11:04:35.783Z,6556.00
2023-05-01T11:05:38.610Z,6368.00
2023-05-01T11:06:35.910Z,6196.00
2023-05-01T11:07:35.871Z,6024.00
2023-05-01T11:08:35.908Z,5852.00
2023-05-01T11:09:35.922Z,5836.00
2023-05-01T11:10:35.970Z,6092.00
2023-05-01T11:11:35.984Z,6364.00
2023-05-01T11:12:36.010Z,6480.00
2023-05-01T11:13:36.036Z,6452.00
2023-05-01T11:14:36.065Z,6344.00
2023-05-01T11:15:36.102Z,6216.00
2023-05-01T11:16:36.161Z,6048.00
2023-05-01T11:17:36.178Z,5920.00
2023-05-01T11:18:36.178Z,5852.00
2023-05-01T11:19:36.217Z,5864.00
2023-05-01T11:20:36.240Z,5884.00
2023-05-01T11:21:36.269Z,5908.00
2023-05-01T11:22:36.300Z,5916.00
2023-05-01T11:23:36.331Z,6020.00
2023-05-01T11:24:36.357Z,6084.00
2023-05-01T11:25:36.383Z,6156.00
2023-05-01T11:26:36.414Z,6244.00
2023-05-01T11:27:36.446Z,6260.00
2023-05-01T11:28:36.473Z,6292.00
2023-05-01T11:29:36.500Z,6532.00
2023-05-01T11:30:36.547Z,6756.00
2023-05-01T11:31:36.592Z,7048.00
2023-05-01T11:32:36.641Z,7328.00
2023-05-01T11:33:36.626Z,7540.00
2023-05-01T11:34:36.648Z,7820.00
2023-05-01T11:35:36.678Z,8096.00
2023-05-01T11:36:36.707Z,8340.00
2023-05-01T11:37:36.734Z,8540.00
2023-05-01T11:38:36.771Z,8716.00
2023-05-01T11:39:36.802Z,8872.00
2023-05-01T11:40:36.823Z,9048.00
2023-05-01T11:41:36.853Z,9168.00
2023-05-01T11:42:36.893Z,9304.00
2023-05-01T11:43:36.912Z,9452.00
2023-05-01T11:44:36.935Z,9584.00
2023-05-01T11:45:37.333Z,9628.00
2023-05-01T11:46:37.044Z,9640.00
2023-05-01T11:47:37.056Z,9560.00
2023-05-01T11:48:37.057Z,9408.00
2023-05-01T11:49:37.088Z,9196.00
2023-05-01T11:50:37.158Z,8944.00
2023-05-01T11:51:37.148Z,8684.00
2023-05-01T11:52:37.177Z,8532.00
2023-05-01T11:53:37.201Z,8448.00
2023-05-01T11:54:37.256Z,8420.00
2023-05-01T11:55:37.271Z,8460.00
2023-05-01T11:56:37.297Z,8444.00
2023-05-01T11:57:37.330Z,8384.00
2023-05-01T11:58:37.359Z,8308.00
2023-05-01T11:59:37.393Z,8232.00
2023-05-01T12:00:37.432Z,8044.00
2023-05-01T12:01:37.454Z,7752.00
2023-05-01T12:02:37.556Z,7448.00
2023-05-01T12:03:37.592Z,7096.00
2023-05-01T12:04:37.583Z,6796.00
2023-05-01T12:05:37.628Z,6560.00
2023-05-01T12:06:37.630Z,6416.00
2023-05-01T12:07:37.631Z,6332.00
2023-05-01T12:08:37.669Z,6352.00
2023-05-01T12:09:37.698Z,6480.00
2023-05-01T12:10:37.726Z,6700.00
2023-05-01T12:11:37.750Z,7068.00
2023-05-01T12:12:37.793Z,7540.00
2023-05-01T12:13:37.819Z,7904.00
2023-05-01T12:14:37.842Z,8240.00
2023-05-01T12:15:37.880Z,8644.00
2023-05-01T12:16:38.035Z,9156.00
2023-05-01T12:17:37.960Z,9608.00
2023-05-01T12:18:37.968Z,10152.00
2023-05-01T12:19:37.999Z,10484.00
2023-05-01T12:20:38.034Z,10744.00
2023-05-01T12:21:38.060Z,10952.00
2023-05-01T12:22:38.092Z,10712.00